sensor_id;sensor_type;location;lat;lon;timestamp;pressure;altitude;pressure_sealevel;temperature
77385;BMP280;66444;49.680;18.538;2023-05-10T00:02:48;97666.57712073569;;;10.140946871927008
77385;BMP280;66444;49.680;18.538;2023-05-10T00:07:50;97670.76821007942;;;10.029018282331526
77385;BMP280;66444;49.680;18.538;2023-05-10T00:12:52;97660.11603231318;;;9.9069111533463
77385;BMP280;66444;49.680;18.538;2023-05-10T00:17:54;97651.13292037297;;;9.830592495156452
77385;BMP280;66444;49.680;18.538;2023-05-10T00:22:56;97650.11803994719;;;9.754272527294233
77385;BMP280;66444;49.680;18.538;2023-05-10T00:27:59;97651.42923758505;;;9.693215610040351
77385;BMP280;66444;49.680;18.538;2023-05-10T00:33:01;97635.90744875485;;;9.591452218638732
77385;BMP280;66444;49.680;18.538;2023-05-10T00:38:03;97627.90195697774;;;9.469333075592294
77385;BMP280;66444;49.680;18.538;2023-05-10T00:43:04;97622.99793011353;;;9.367564561916515
77385;BMP280;66444;49.680;18.538;2023-05-10T00:48:07;97614.98626753203;;;9.245439272141084
77385;BMP280;66444;49.680;18.538;2023-05-10T00:53:09;97618.48863918257;;;9.164020549645647
77385;BMP280;66444;49.680;18.538;2023-05-10T00:58:11;97621.98725092503;;;9.08260033703409
77385;BMP280;66444;49.680;18.538;2023-05-10T01:03:13;97615.51755140156;;;8.970645111612976
77385;BMP280;66444;49.680;18.538;2023-05-10T01:08:20;97613.51142454984;;;8.940111379371956
77385;BMP280;66444;49.680;18.538;2023-05-10T01:13:31;97606.20016708871;;;8.909577437583357
77385;BMP280;66444;49.680;18.538;2023-05-10T01:18:36;97598.43590266859;;;8.858687068941071
77385;BMP280;66444;49.680;18.538;2023-05-10T01:26:06;97605.93885743641;;;8.838330758502707
77385;BMP280;66444;49.680;18.538;2023-05-10T01:33:38;97590.02596621873;;;8.838330758502707
77385;BMP280;66444;49.680;18.538;2023-05-10T01:38:47;97596.23693328894;;;8.879043286247178
77385;BMP280;66444;49.680;18.538;2023-05-10T01:43:54;97588.08556681339;;;8.92993342205882
77385;BMP280;66444;49.680;18.538;2023-05-10T01:49:03;97585.75678721564;;;8.914666442433372
77385;BMP280;66444;49.680;18.538;2023-05-10T01:54:10;97594.68417937339;;;8.868865189235658
77385;BMP280;66444;49.680;18.538;2023-05-10T01:59:15;97585.498006915;;;8.843419844843448
77385;BMP280;66444;49.680;18.538;2023-05-10T02:04:20;97584.72168855456;;;8.838330758502707
77385;BMP280;66444;49.680;18.538;2023-05-10T02:09:25;97582.90798150265;;;8.756904585426673
77385;BMP280;66444;49.680;18.538;2023-05-10T02:14:34;97577.34185351168;;;8.685655461624265
77385;BMP280;66444;49.680;18.538;2023-05-10T02:19:38;97572.41848423278;;;8.583869019988924
77385;BMP280;66444;49.680;18.538;2023-05-10T02:24:44;97572.41848423278;;;8.583869019988924
77385;BMP280;66444;49.680;18.538;2023-05-10T02:29:53;97581.2010260298;;;8.502438190300017
77385;BMP280;66444;49.680;18.538;2023-05-10T02:34:56;97572.70750199823;;;8.359930652752519
77385;BMP280;66444;49.680;18.538;2023-05-10T02:40:04;97570.742379354;;;8.24286747588776
77385;BMP280;66444;49.680;18.538;2023-05-10T02:45:10;97572.97490536206;;;8.135981016512961
77385;BMP280;66444;49.680;18.538;2023-05-10T02:50:15;97583.74856586297;;;8.085081800306217
77385;BMP280;66444;49.680;18.538;2023-05-10T02:55:18;97584.38414140679;;;8.054541991185397
77385;BMP280;66444;49.680;18.538;2023-05-10T03:00:24;97586.11371550434;;;8.01382191972807
77385;BMP280;66444;49.680;18.538;2023-05-10T03:05:27;97582.37064087218;;;8.024001972516999
77385;BMP280;66444;49.680;18.538;2023-05-10T03:10:29;97577.07341848982;;;8.024001972516999
77385;BMP280;66444;49.680;18.538;2023-05-10T03:15:37;97574.74245795861;;;8.008731884602458
77385;BMP280;66444;49.680;18.538;2023-05-10T03:20:48;97575.51944274212;;;8.01382191972807
77385;BMP280;66444;49.680;18.538;2023-05-10T03:25:52;97570.22232087822;;;8.01382191972807
77385;BMP280;66444;49.680;18.538;2023-05-10T03:30:55;97567.11457578628;;;7.993461744301021
77385;BMP280;66444;49.680;18.538;2023-05-10T03:35:59;97562.27665622886;;;8.01382191972807
77385;BMP280;66444;49.680;18.538;2023-05-10T03:41:01;97560.1873000889;;;8.156340540014208
77385;BMP280;66444;49.680;18.538;2023-05-10T03:46:04;97566.53940576942;;;8.232687923684717
77385;BMP280;66444;49.680;18.538;2023-05-10T03:51:07;97564.48436413883;;;8.288675172673539
77385;BMP280;66444;49.680;18.538;2023-05-10T03:56:09;97562.56340373831;;;8.380289151798934
77385;BMP280;66444;49.680;18.538;2023-05-10T04:01:11;97566.84990067175;;;8.512617125501857
77385;BMP280;66444;49.680;18.538;2023-05-10T04:06:12;97575.78907199341;;;8.67547692223452
77385;BMP280;66444;49.680;18.538;2023-05-10T04:11:14;97565.31320117333;;;8.919755441462621
77385;BMP280;66444;49.680;18.538;2023-05-10T04:16:15;97563.86589932872;;;9.153843104559929
77385;BMP280;66444;49.680;18.538;2023-05-10T04:21:17;97570.11478248819;;;9.316679431963712
77385;BMP280;66444;49.680;18.538;2023-05-10T04:26:19;97580.23399310902;;;9.504951505316422
77385;BMP280;66444;49.680;18.538;2023-05-10T04:31:21;97576.1726940798;;;9.652510532876477
77385;BMP280;66444;49.680;18.538;2023-05-10T04:36:22;97575.97682128595;;;9.825504538044333
77385;BMP280;66444;49.680;18.538;2023-05-10T04:41:24;97575.10460104365;;;10.029018282331526
77385;BMP280;66444;49.680;18.538;2023-05-10T04:46:26;97575.76398593446;;;10.24269769047387
77385;BMP280;66444;49.680;18.538;2023-05-10T04:51:28;97569.53657946162;;;10.446192342648283
77385;BMP280;66444;49.680;18.538;2023-05-10T04:56:29;97569.48321810196;;;10.690373631799593
77385;BMP280;66444;49.680;18.538;2023-05-10T05:01:31;97567.85572845707;;;10.92436811607331
77385;BMP280;66444;49.680;18.538;2023-05-10T05:06:33;97563.10739978154;;;11.138004497112707
77385;BMP280;66444;49.680;18.538;2023-05-10T05:11:35;97563.66219277646;;;11.351630610320717
77385;BMP280;66444;49.680;18.538;2023-05-10T05:16:36;97558.86996356866;;;11.565246455697343
77385;BMP280;66444;49.680;18.538;2023-05-10T05:21:38;97560.15791982999;;;11.783937755180522
77385;BMP280;66444;49.680;18.538;2023-05-10T05:26:40;97554.6286874296;;;12.028045562980697
77385;BMP280;66444;49.680;18.538;2023-05-10T05:31:42;97555.87265552723;;;12.246714085806161
77385;BMP280;66444;49.680;18.538;2023-05-10T05:36:44;97560.81275616711;;;12.419607158889994
77385;BMP280;66444;49.680;18.538;2023-05-10T05:41:46;97567.36007985378;;;12.638256409158931
77385;BMP280;66444;49.680;18.538;2023-05-10T05:46:52;97558.7142339893;;;12.897570637334137
77385;BMP280;66444;49.680;18.538;2023-05-10T05:51:59;97551.86778896609;;;13.116196360066533
77385;BMP280;66444;49.680;18.538;2023-05-10T05:57:01;97561.67509268963;;;13.268719560327009
77385;BMP280;66444;49.680;18.538;2023-05-10T06:02:03;97555.86085536784;;;13.441572854295373
77385;BMP280;66444;49.680;18.538;2023-05-10T06:07:05;97559.23444745816;;;13.639837464457377
77385;BMP280;66444;49.680;18.538;2023-05-10T06:12:07;97555.75539310349;;;13.863509985664859
77385;BMP280;66444;49.680;18.538;2023-05-10T06:17:14;97548.39632445289;;;14.061755754007027
77385;BMP280;66444;49.680;18.538;2023-05-10T06:22:16;97551.71796562072;;;14.259992668963969
77385;BMP280;66444;49.680;18.538;2023-05-10T06:27:18;97542.04909921173;;;14.478551313187927
77385;BMP280;66444;49.680;18.538;2023-05-10T06:32:20;97549.8795971523;;;14.63611017097719
77385;BMP280;66444;49.680;18.538;2023-05-10T06:37:22;97541.30614415853;;;14.84448587531224
77385;BMP280;66444;49.680;18.538;2023-05-10T06:42:24;97548.04560303301;;;15.083343547815456
77385;BMP280;66444;49.680;18.538;2023-05-10T06:47:26;97540.53518926661;;;15.24596269079484
77385;BMP280;66444;49.680;18.538;2023-05-10T06:52:28;97542.19193035927;;;15.398412724025548
77385;BMP280;66444;49.680;18.538;2023-05-10T06:57:30;97534.65405845191;;;15.561020318605006
77385;BMP280;66444;49.680;18.538;2023-05-10T07:02:33;97523.67135147742;;;15.754109095549211
77385;BMP280;66444;49.680;18.538;2023-05-10T07:07:35;97533.34001116686;;;15.906541666481644
77385;BMP280;66444;49.680;18.538;2023-05-10T07:12:37;97528.030633151;;;16.013241349114104
77385;BMP280;66444;49.680;18.538;2023-05-10T07:17:39;97524.25257981138;;;16.13009996097535
77385;BMP280;66444;49.680;18.538;2023-05-10T07:22:41;97522.01850621408;;;16.292680733464657
77385;BMP280;66444;49.680;18.538;2023-05-10T07:27:43;97528.96310346224;;;16.409531982056798
77385;BMP280;66444;49.680;18.538;2023-05-10T07:32:49;97521.32923980484;;;16.53654071632773
77385;BMP280;66444;49.680;18.538;2023-05-10T07:37:51;97525.19780457762;;;16.668625940801576
77385;BMP280;66444;49.680;18.538;2023-05-10T07:42:53;97522.92421043113;;;16.831186969252304
77385;BMP280;66444;49.680;18.538;2023-05-10T07:47:55;97519.10164477846;;;16.983582520112396
77385;BMP280;66444;49.680;18.538;2023-05-10T07:52:57;97516.80316752153;;;17.1461320001632
77385;BMP280;66444;49.680;18.538;2023-05-10T07:58:00;97524.48120448446;;;17.268040198646485
77385;BMP280;66444;49.680;18.538;2023-05-10T08:03:03;97522.93484834874;;;17.40010363017209
77385;BMP280;66444;49.680;18.538;2023-05-10T08:08:04;97520.59277367292;;;17.63374467752874
77385;BMP280;66444;49.680;18.538;2023-05-10T08:13:06;97528.23306876657;;;17.826743209315463
77385;BMP280;66444;49.680;18.538;2023-05-10T08:18:08;97524.34000209882;;;17.979104534070938
77385;BMP280;66444;49.680;18.538;2023-05-10T08:23:11;97531.60924198586;;;18.080675840191542
77385;BMP280;66444;49.680;18.538;2023-05-10T08:28:14;97531.20450533621;;;18.13146062013693
77385;BMP280;66444;49.680;18.538;2023-05-10T08:33:17;97528.21203718615;;;17.897845812793822
77385;BMP280;66444;49.680;18.538;2023-05-10T08:38:19;97532.89558538394;;;17.608349508140236
77385;BMP280;66444;49.680;18.538;2023-05-10T08:43:21;97535.22007221301;;;17.481371478410438
77385;BMP280;66444;49.680;18.538;2023-05-10T08:48:33;97533.69965080908;;;17.257881310163064
77385;BMP280;66444;49.680;18.538;2023-05-10T08:53:37;97536.00433112547;;;17.16645026607439
77385;BMP280;66444;49.680;18.538;2023-05-10T08:58:39;97529.84523468088;;;17.44581697816029
77385;BMP280;66444;49.680;18.538;2023-05-10T09:03:41;97537.48762611914;;;17.709929312579334
77385;BMP280;66444;49.680;18.538;2023-05-10T09:08:44;97536.61655073758;;;18.06036176523194
77385;BMP280;66444;49.680;18.538;2023-05-10T09:13:47;97524.89747752441;;;18.446313263848424
77385;BMP280;66444;49.680;18.538;2023-05-10T09:18:52;97521.70287121877;;;18.639276405377313
77385;BMP280;66444;49.680;18.538;2023-05-10T09:23:54;97525.98609345611;;;19.096260844543576
77385;BMP280;66444;49.680;18.538;2023-05-10T09:28:56;97526.83896463337;;;18.994712821487337
77385;BMP280;66444;49.680;18.538;2023-05-10T09:34:05;97527.73887426438;;;18.82207583882846
77385;BMP280;66444;49.680;18.538;2023-05-10T09:39:07;97525.25068739908;;;18.502171879727392
77385;BMP280;66444;49.680;18.538;2023-05-10T09:44:09;97523.23610464753;;;18.64943212736398
77385;BMP280;66444;49.680;18.538;2023-05-10T09:49:16;97522.44631072813;;;18.67989915362559
77385;BMP280;66444;49.680;18.538;2023-05-10T09:54:18;97530.25697470734;;;19.482122098002584
77385;BMP280;66444;49.680;18.538;2023-05-10T09:59:20;97512.30850478243;;;19.685193464066835
77385;BMP280;66444;49.680;18.538;2023-05-10T10:04:22;97517.49498093828;;;19.522737116273493
77385;BMP280;66444;49.680;18.538;2023-05-10T10:09:24;97516.23938908227;;;19.228269793698566
77385;BMP280;66444;49.680;18.538;2023-05-10T10:14:28;97512.37702216064;;;19.238424165267496
77385;BMP280;66444;49.680;18.538;2023-05-10T10:19:31;97495.86085948869;;;19.898408375075086
77385;BMP280;66444;49.680;18.538;2023-05-10T10:24:35;97495.77213037448;;;19.96947773033753
77385;BMP280;66444;49.680;18.538;2023-05-10T10:29:39;97494.10948356918;;;20.603974977275357
77385;BMP280;66444;49.680;18.538;2023-05-10T10:34:48;97497.41779789636;;;21.38047581729479
77385;BMP280;66444;49.680;18.538;2023-05-10T10:39:51;97493.3163436042;;;21.299279494630174
77385;BMP280;66444;49.680;18.538;2023-05-10T10:45:00;97501.1136296921;;;21.04553138203919
77385;BMP280;66444;49.680;18.538;2023-05-10T10:50:18;97495.00079180376;;;21.0049303336069
77385;BMP280;66444;49.680;18.538;2023-05-10T10:55:20;97482.87967354349;;;21.08613205794245
77385;BMP280;66444;49.680;18.538;2023-05-10T11:00:24;97480.77403955958;;;20.964328912645577
77385;BMP280;66444;49.680;18.538;2023-05-10T11:05:37;97480.04710442865;;;21.15718234437518
77385;BMP280;66444;49.680;18.538;2023-05-10T11:10:48;97467.7146628544;;;21.54286399227567
77385;BMP280;66444;49.680;18.538;2023-05-10T11:15:53;97478.75184310188;;;21.436297424742953
77385;BMP280;66444;49.680;18.538;2023-05-10T11:20:56;97472.97847250596;;;21.218081681849434
77385;BMP280;66444;49.680;18.538;2023-05-10T11:26:00;97477.11890995066;;;21.065831766556947
77385;BMP280;66444;49.680;18.538;2023-05-10T11:31:02;97476.09875982176;;;21.202856926061212
77385;BMP280;66444;49.680;18.538;2023-05-10T11:36:05;97476.39240111099;;;21.456596016464754
77385;BMP280;66444;49.680;18.538;2023-05-10T11:41:11;97470.47926247465;;;21.705246206792072
77385;BMP280;66444;49.680;18.538;2023-05-10T11:46:14;97469.93337405307;;;21.593609074596316
77385;BMP280;66444;49.680;18.538;2023-05-10T11:51:19;97469.17006211187;;;21.5885345925577
77385;BMP280;66444;49.680;18.538;2023-05-10T11:56:22;97470.97023211504;;;21.654502405039967
77385;BMP280;66444;49.680;18.538;2023-05-10T12:01:24;97473.15788387936;;;21.90314147188328
77385;BMP280;66444;49.680;18.538;2023-05-10T12:06:29;97471.4402674434;;;22.32427371935919
77385;BMP280;66444;49.680;18.538;2023-05-10T12:11:35;97473.54348877803;;;22.7352195403073
77385;BMP280;66444;49.680;18.538;2023-05-10T12:16:39;97465.15912083928;;;22.679414324136452
77385;BMP280;66444;49.680;18.538;2023-05-10T12:21:41;97459.14973523811;;;22.60331516703591
77385;BMP280;66444;49.680;18.538;2023-05-10T12:26:43;97469.91790654411;;;22.476480328151958
77385;BMP280;66444;49.680;18.538;2023-05-10T12:31:51;97464.49398566458;;;22.314126425841824
77385;BMP280;66444;49.680;18.538;2023-05-10T12:36:54;97462.08673264863;;;22.82146257995628
77385;BMP280;66444;49.680;18.538;2023-05-10T12:41:57;97463.5754385467;;;22.993943612650035
77385;BMP280;66444;49.680;18.538;2023-05-10T12:46:59;97458.10016531403;;;23.15627255551517
77385;BMP280;66444;49.680;18.538;2023-05-10T12:52:01;97459.71909561349;;;23.546852147439495
77385;BMP280;66444;49.680;18.538;2023-05-10T12:57:04;97459.36377540475;;;23.399754793941973
77385;BMP280;66444;49.680;18.538;2023-05-10T13:02:06;97450.81606457362;;;23.125836332747713
77385;BMP280;66444;49.680;18.538;2023-05-10T13:07:09;97451.75387616368;;;22.770731583889575
77385;BMP280;66444;49.680;18.538;2023-05-10T13:12:11;97450.7652724795;;;22.547508286125957
77385;BMP280;66444;49.680;18.538;2023-05-10T13:17:13;97456.36172371218;;;22.476480328151958
77385;BMP280;66444;49.680;18.538;2023-05-10T13:22:16;97447.54047365821;;;22.598241843329742
77385;BMP280;66444;49.680;18.538;2023-05-10T13:27:18;97450.48101807378;;;23.521490884013474
77385;BMP280;66444;49.680;18.538;2023-05-10T13:32:20;97445.94691395802;;;23.871463467041032
77385;BMP280;66444;49.680;18.538;2023-05-10T13:37:22;97433.37736170371;;;25.184881427139043
77385;BMP280;66444;49.680;18.538;2023-05-10T13:42:24;97433.0615544655;;;27.334190013073385
77385;BMP280;66444;49.680;18.538;2023-05-10T13:47:26;97431.41458920519;;;28.16524569885805
77385;BMP280;66444;49.680;18.538;2023-05-10T13:52:29;97411.79928571107;;;29.502713806461543
77385;BMP280;66444;49.680;18.538;2023-05-10T13:57:31;97414.5599683717;;;27.283510821824894
77385;BMP280;66444;49.680;18.538;2023-05-10T14:02:34;97416.72872031224;;;25.874396288208665
77385;BMP280;66444;49.680;18.538;2023-05-10T14:07:36;97417.0392990382;;;25.184881427139043
77385;BMP280;66444;49.680;18.538;2023-05-10T14:12:38;97414.9624725275;;;24.789375794352964
77385;BMP280;66444;49.680;18.538;2023-05-10T14:17:40;97420.65761612577;;;24.373549637198447
77385;BMP280;66444;49.680;18.538;2023-05-10T14:22:43;97401.03405875868;;;24.079405064461753
77385;BMP280;66444;49.680;18.538;2023-05-10T14:27:45;97411.71195423424;;;23.770024990802632
77385;BMP280;66444;49.680;18.538;2023-05-10T14:32:48;97411.6994211121;;;23.516418613865973
77385;BMP280;66444;49.680;18.538;2023-05-10T14:37:50;97406.1281238535;;;23.298305491078644
77385;BMP280;66444;49.680;18.538;2023-05-10T14:42:52;97408.18311799275;;;23.25772511800751
77385;BMP280;66444;49.680;18.538;2023-05-10T14:47:55;97413.67937328528;;;23.095399900432675
77385;BMP280;66444;49.680;18.538;2023-05-10T14:54:02;97408.49945244809;;;22.862046957714483
77385;BMP280;66444;49.680;18.538;2023-05-10T14:59:04;97414.63360038181;;;22.740292706852777
77385;BMP280;66444;49.680;18.538;2023-05-10T15:04:07;97406.16222806623;;;22.72000000574626
77385;BMP280;66444;49.680;18.538;2023-05-10T15:09:09;97413.87187867283;;;22.7352195403073
77385;BMP280;66444;49.680;18.538;2023-05-10T15:14:11;97412.44857770718;;;22.97872496866621
77385;BMP280;66444;49.680;18.538;2023-05-10T15:19:14;97406.16222806623;;;22.72000000574626
77385;BMP280;66444;49.680;18.538;2023-05-10T15:24:17;97412.80403799267;;;22.547508286125957
77385;BMP280;66444;49.680;18.538;2023-05-10T15:29:19;97409.14986705873;;;22.613461796985938
77385;BMP280;66444;49.680;18.538;2023-05-10T15:34:21;97401.46465869757;;;22.435892411367966
77385;BMP280;66444;49.680;18.538;2023-05-10T15:39:23;97399.9530184972;;;22.101027883589268
77385;BMP280;66444;49.680;18.538;2023-05-10T15:44:26;97406.88445826083;;;21.948808352695778
77385;BMP280;66444;49.680;18.538;2023-05-10T15:49:28;97404.56326558645;;;21.410924054123463
77385;BMP280;66444;49.680;18.538;2023-05-10T15:54:30;97407.17910249221;;;20.85267308414914
77385;BMP280;66444;49.680;18.538;2023-05-10T15:59:33;97411.43003920105;;;20.62935297540389
77385;BMP280;66444;49.680;18.538;2023-05-10T16:04:35;97408.48153187458;;;20.30450360975228
77385;BMP280;66444;49.680;18.538;2023-05-10T16:09:38;97403.19736623211;;;19.964401385653765
77385;BMP280;66444;49.680;18.538;2023-05-10T16:14:40;97403.53479740694;;;19.71565336571075
77385;BMP280;66444;49.680;18.538;2023-05-10T16:19:43;97416.9322346484;;;19.482122098002584
77385;BMP280;66444;49.680;18.538;2023-05-10T16:24:45;97428.21483130756;;;19.020100045530125
77385;BMP280;66444;49.680;18.538;2023-05-10T16:29:48;97420.26410088202;;;18.395532092778012
77385;BMP280;66444;49.680;18.538;2023-05-10T16:34:50;97424.33694930086;;;18.029890478169545
77385;BMP280;66444;49.680;18.538;2023-05-10T16:39:52;97422.80420079318;;;18.01973333591595
77385;BMP280;66444;49.680;18.538;2023-05-10T16:44:54;97435.06637089266;;;18.100989822018892
77385;BMP280;66444;49.680;18.538;2023-05-10T16:49:57;97426.55504018143;;;18.187323205778377
77385;BMP280;66444;49.680;18.538;2023-05-10T16:54:59;97433.49353618523;;;18.161931208707394
77385;BMP280;66444;49.680;18.538;2023-05-10T17:00:15;97441.63233707291;;;18.64435426928103
77385;BMP280;66444;49.680;18.538;2023-05-10T17:05:17;97440.77182825476;;;19.53289081263356
77385;BMP280;66444;49.680;18.538;2023-05-10T17:10:25;97431.82525191492;;;19.903484795428813
77385;BMP280;66444;49.680;18.538;2023-05-10T17:15:27;97445.40351590609;;;19.527813967363908
77385;BMP280;66444;49.680;18.538;2023-05-10T17:20:35;97453.01313877484;;;19.614119545323774
77385;BMP280;66444;49.680;18.538;2023-05-10T17:25:37;97457.1946325491;;;19.319658299628646
77385;BMP280;66444;49.680;18.538;2023-05-10T17:30:39;97454.16870535527;;;18.85254167765379
77385;BMP280;66444;49.680;18.538;2023-05-10T17:35:47;97455.57843481995;;;18.5224839290604
77385;BMP280;66444;49.680;18.538;2023-05-10T17:40:50;97465.0173070269;;;18.192401587730274
77385;BMP280;66444;49.680;18.538;2023-05-10T17:45:52;97463.9136914622;;;18.095911335293202
77385;BMP280;66444;49.680;18.538;2023-05-10T17:50:54;97469.7836385803;;;17.86737340814434
77385;BMP280;66444;49.680;18.538;2023-05-10T17:55:58;97477.5287663659;;;17.704850377654658
77385;BMP280;66444;49.680;18.538;2023-05-10T18:01:01;97478.35227538658;;;17.496609034063294
77385;BMP280;66444;49.680;18.538;2023-05-10T18:06:03;97477.23976948478;;;17.257881310163064
77385;BMP280;66444;49.680;18.538;2023-05-10T18:11:06;97478.79034817507;;;17.054698651051147
77385;BMP280;66444;49.680;18.538;2023-05-10T18:16:09;97484.54486067867;;;16.86166649851948
77385;BMP280;66444;49.680;18.538;2023-05-10T18:21:11;97492.96569993871;;;16.668625940801576
77385;BMP280;66444;49.680;18.538;2023-05-10T18:26:13;97491.38414048354;;;16.44509479436092
77385;BMP280;66444;49.680;18.538;2023-05-10T18:31:16;97498.2250802959;;;16.241874882346018
77385;BMP280;66444;49.680;18.538;2023-05-10T18:36:18;97502.02873022459;;;16.16058430983685
77385;BMP280;66444;49.680;18.538;2023-05-10T18:41:21;97501.96791124597;;;16.01832222235389
77385;BMP280;66444;49.680;18.538;2023-05-10T18:46:23;97507.63863306622;;;15.86081244526431
77385;BMP280;66444;49.680;18.538;2023-05-10T18:51:36;97524.41891060406;;;15.723621952719986
77385;BMP280;66444;49.680;18.538;2023-05-10T18:56:38;97518.56677166243;;;15.561020318605006
77385;BMP280;66444;49.680;18.538;2023-05-10T19:01:41;97529.29161960354;;;15.561020318605006
77385;BMP280;66444;49.680;18.538;2023-05-10T19:06:43;97526.85117187182;;;15.367923136474564
77385;BMP280;66444;49.680;18.538;2023-05-10T19:11:46;97526.85117187182;;;15.367923136474564
77385;BMP280;66444;49.680;18.538;2023-05-10T19:16:48;97533.75157587846;;;15.378086355607957
77385;BMP280;66444;49.680;18.538;2023-05-10T19:21:51;97534.40551432125;;;15.240880932798609
77385;BMP280;66444;49.680;18.538;2023-05-10T19:26:54;97543.89128406467;;;15.144326424924657
77385;BMP280;66444;49.680;18.538;2023-05-10T19:31:56;97532.64146665506;;;14.981703556654974
77385;BMP280;66444;49.680;18.538;2023-05-10T19:37:00;97537.19412106022;;;14.94104690826498
77385;BMP280;66444;49.680;18.538;2023-05-10T19:42:08;97547.20773065602;;;15.007113772723823
77385;BMP280;66444;49.680;18.538;2023-05-10T19:47:10;97553.33572896947;;;15.012195798475295
77385;BMP280;66444;49.680;18.538;2023-05-10T19:52:12;97554.87640530268;;;15.02235983251594
77385;BMP280;66444;49.680;18.538;2023-05-10T19:57:15;97546.36756144784;;;14.93088268795982
77385;BMP280;66444;49.680;18.538;2023-05-10T20:02:18;97543.2138490625;;;14.839403657475486
77385;BMP280;66444;49.680;18.538;2023-05-10T20:07:22;97554.98716375286;;;14.758087380463257
77385;BMP280;66444;49.680;18.538;2023-05-10T20:12:26;97560.66902448;;;14.707263950631022
77385;BMP280;66444;49.680;18.538;2023-05-10T20:17:29;97553.8505470657;;;14.768251996580512
77385;BMP280;66444;49.680;18.538;2023-05-10T20:22:33;97551.6518972033;;;14.8597324938979
77385;BMP280;66444;49.680;18.538;2023-05-10T20:27:36;97553.96330216367;;;14.874979060096667
77385;BMP280;66444;49.680;18.538;2023-05-10T20:32:40;97565.44693149647;;;14.880061237188055
77385;BMP280;66444;49.680;18.538;2023-05-10T20:37:44;97557.81567907736;;;14.900389887345955
77385;BMP280;66444;49.680;18.538;2023-05-10T20:42:47;97563.17243502481;;;14.900389887345955
77385;BMP280;66444;49.680;18.538;2023-05-10T20:47:51;97561.59413451185;;;14.854650293523445
77385;BMP280;66444;49.680;18.538;2023-05-10T20:52:54;97563.09751989863;;;14.829239204339682
77385;BMP280;66444;49.680;18.538;2023-05-10T20:57:58;97563.86811246458;;;14.834321433817967
77385;BMP280;66444;49.680;18.538;2023-05-10T21:03:01;97567.56557558267;;;14.717428683163599
77385;BMP280;66444;49.680;18.538;2023-05-10T21:08:05;97560.58850182127;;;14.63611017097719
77385;BMP280;66444;49.680;18.538;2023-05-10T21:13:09;97568.8579359158;;;14.514129608729855
77385;BMP280;66444;49.680;18.538;2023-05-10T21:18:12;97570.3564693148;;;14.488716569589451
77385;BMP280;66444;49.680;18.538;2023-05-10T21:23:16;97568.45082176571;;;14.493799189059065
77385;BMP280;66444;49.680;18.538;2023-05-10T21:28:19;97572.49101659503;;;14.36164919110015
77385;BMP280;66444;49.680;18.538;2023-05-10T21:33:23;97569.31389182516;;;14.270158425951376
77385;BMP280;66444;49.680;18.538;2023-05-10T21:38:38;97577.6548681469;;;14.219329408183693
77385;BMP280;66444;49.680;18.538;2023-05-10T21:43:42;97574.4720987973;;;14.12783570936881
77385;BMP280;66444;49.680;18.538;2023-05-10T21:48:45;97579.72177634471;;;14.056672639772296
77385;BMP280;66444;49.680;18.538;2023-05-10T21:53:54;97583.31946856968;;;13.904176506074146
77385;BMP280;66444;49.680;18.538;2023-05-10T21:58:57;97577.86431608928;;;13.83300985088572
77385;BMP280;66444;49.680;18.538;2023-05-10T22:04:01;97580.23295437515;;;13.883843292435632